createdAt,value
2023-01-26T00:00:28.670Z,101546.06
2023-01-26T00:02:59.137Z,101545.25
2023-01-26T00:05:35.974Z,101536.59
2023-01-26T00:08:08.704Z,101531.44
2023-01-26T00:10:39.412Z,101519.38
2023-01-26T00:13:13.804Z,101527.16
2023-01-26T00:15:54.263Z,101505.84
2023-01-26T00:18:24.644Z,101506.41
2023-01-26T00:21:06.406Z,101502.06
2023-01-26T00:23:39.893Z,101504.69
2023-01-26T00:26:15.400Z,101373.78
2023-01-26T00:28:44.750Z,101497.75
2023-01-26T00:31:18.272Z,101497.78
2023-01-26T00:33:50.822Z,101483.84
2023-01-26T00:36:21.800Z,101472.47
2023-01-26T00:38:50.747Z,101462.88
2023-01-26T00:41:36.893Z,101464.72
2023-01-26T00:44:06.413Z,101464.50
2023-01-26T00:46:42.897Z,101465.75
2023-01-26T00:49:17.211Z,101453.56
2023-01-26T00:51:55.300Z,101462.22
2023-01-26T00:54:32.713Z,101467.44
2023-01-26T00:57:04.516Z,101472.72
2023-01-26T00:59:38.337Z,101476.31
2023-01-26T01:02:13.050Z,101468.56
2023-01-26T01:04:46.540Z,101472.00
2023-01-26T01:07:17.268Z,101472.00
2023-01-26T01:09:55.726Z,101467.66
2023-01-26T01:12:50.091Z,101465.06
2023-01-26T01:15:29.244Z,101382.91
2023-01-26T01:18:00.960Z,101464.03
2023-01-26T01:20:35.335Z,101459.66
2023-01-26T01:23:10.679Z,101458.91
2023-01-26T01:25:41.427Z,101456.44
2023-01-26T01:28:13.984Z,101457.31
2023-01-26T01:30:46.095Z,101453.84
2023-01-26T01:33:17.293Z,101458.16
2023-01-26T01:35:59.398Z,101220.41
2023-01-26T01:38:28.803Z,101462.44
2023-01-26T01:41:00.518Z,101460.66
2023-01-26T01:43:30.567Z,101397.81
2023-01-26T01:46:16.760Z,101393.44
2023-01-26T01:49:01.831Z,101315.72
2023-01-26T01:51:42.866Z,101170.06
2023-01-26T01:54:24.868Z,101187.81
2023-01-26T01:57:02.549Z,101424.81
2023-01-26T01:59:34.938Z,101435.56
2023-01-26T02:02:04.789Z,101434.56
2023-01-26T02:04:36.154Z,101437.19
2023-01-26T02:07:13.868Z,101413.06
2023-01-26T02:10:03.190Z,101326.50
2023-01-26T02:12:44.304Z,101226.78
2023-01-26T02:15:17.469Z,101417.16
2023-01-26T02:17:48.512Z,101422.38
2023-01-26T02:20:28.512Z,101339.34
2023-01-26T02:23:11.457Z,101010.59
2023-01-26T02:25:57.748Z,101213.19
2023-01-26T02:28:30.545Z,101281.09
2023-01-26T02:31:00.073Z,101403.06
2023-01-26T02:33:38.008Z,101370.09
2023-01-26T02:36:21.543Z,101273.84
2023-01-26T02:39:01.349Z,101181.41
2023-01-26T02:41:47.716Z,101396.09
2023-01-26T02:44:18.682Z,101388.31
2023-01-26T02:46:56.535Z,101314.78
2023-01-26T02:49:43.018Z,101380.63
2023-01-26T02:52:14.750Z,101282.69
2023-01-26T02:55:04.502Z,101375.38
2023-01-26T02:57:41.057Z,101375.31
2023-01-26T03:00:18.760Z,101225.13
2023-01-26T03:02:48.591Z,101361.44
2023-01-26T03:05:23.370Z,101360.66
2023-01-26T03:07:56.454Z,101365.78
2023-01-26T03:10:31.158Z,101367.38
2023-01-26T03:13:02.460Z,101369.94
2023-01-26T03:15:48.156Z,101360.28
2023-01-26T03:18:37.930Z,101366.34
2023-01-26T03:21:28.932Z,101357.69
2023-01-26T03:24:15.050Z,101319.72
2023-01-26T03:27:02.299Z,101295.00
2023-01-26T03:29:32.582Z,101322.53
2023-01-26T03:32:04.447Z,101352.50
2023-01-26T03:34:35.162Z,101155.47
2023-01-26T03:37:07.089Z,101075.91
2023-01-26T03:40:00.924Z,101348.81
2023-01-26T03:42:47.755Z,101284.41
2023-01-26T03:45:34.117Z,101291.44
2023-01-26T03:48:27.825Z,101350.38
2023-01-26T03:51:14.233Z,101182.88
2023-01-26T03:54:01.186Z,101341.91
2023-01-26T03:56:32.923Z,101342.75
2023-01-26T03:59:10.020Z,101237.47
2023-01-26T04:02:02.088Z,101343.59
2023-01-26T04:04:50.362Z,101329.72
2023-01-26T04:07:38.288Z,101326.38
2023-01-26T04:10:09.222Z,101320.25
2023-01-26T04:12:38.321Z,101318.53
2023-01-26T04:15:38.184Z,101314.88
2023-01-26T04:18:25.993Z,101214.09
2023-01-26T04:21:14.942Z,101317.44
2023-01-26T04:23:45.753Z,101319.19
2023-01-26T04:26:15.016Z,101319.25
2023-01-26T04:28:44.479Z,101314.91
2023-01-26T04:31:13.184Z,101192.81
2023-01-26T04:33:42.139Z,101327.03
2023-01-26T04:36:12.777Z,101318.31
2023-01-26T04:38:46.586Z,101325.19
2023-01-26T04:41:20.244Z,101318.34
2023-01-26T04:44:03.324Z,101319.19
2023-01-26T04:46:33.353Z,101317.31
2023-01-26T04:49:06.723Z,101327.03
2023-01-26T04:51:42.468Z,101319.19
2023-01-26T04:54:11.829Z,101319.19
2023-01-26T04:56:47.323Z,101320.13
2023-01-26T04:59:20.098Z,101309.66
2023-01-26T05:01:49.454Z,101309.66
2023-01-26T05:04:22.281Z,101314.81
2023-01-26T05:06:52.549Z,101314.03
2023-01-26T05:09:23.026Z,101309.66
2023-01-26T05:12:19.962Z,101301.69
2023-01-26T05:15:09.716Z,101150.69
2023-01-26T05:18:06.431Z,101293.91
2023-01-26T05:20:41.640Z,101246.94
2023-01-26T05:23:19.963Z,101299.84
2023-01-26T05:25:51.055Z,101275.91
2023-01-26T05:28:20.016Z,101032.19
2023-01-26T05:30:49.001Z,101302.56
2023-01-26T05:33:22.108Z,101305.31
2023-01-26T05:35:52.083Z,101300.91
2023-01-26T05:38:23.452Z,101281.44
2023-01-26T05:40:52.298Z,101298.97
2023-01-26T05:43:20.950Z,101296.34
2023-01-26T05:46:10.481Z,101302.50
2023-01-26T05:48:43.314Z,101298.19
2023-01-26T05:51:11.857Z,101291.94
2023-01-26T05:53:42.501Z,101089.56
2023-01-26T05:56:11.144Z,101271.66
2023-01-26T05:58:44.735Z,101227.44
2023-01-26T06:01:13.206Z,101209.88
2023-01-26T06:03:51.113Z,101116.09
2023-01-26T06:06:20.312Z,101281.22
2023-01-26T06:08:54.965Z,101294.47
2023-01-26T06:11:46.923Z,101295.47
2023-01-26T06:14:31.662Z,101297.06
2023-01-26T06:17:01.299Z,101299.69
2023-01-26T06:19:29.833Z,101213.94
2023-01-26T06:22:01.107Z,101299.84
2023-01-26T06:24:32.419Z,101299.94
2023-01-26T06:27:01.112Z,101296.47
2023-01-26T06:29:29.751Z,101286.88
2023-01-26T06:31:58.445Z,101255.06
2023-01-26T06:34:27.213Z,101299.94
2023-01-26T06:36:56.691Z,101301.66
2023-01-26T06:39:32.375Z,101300.84
2023-01-26T06:42:02.382Z,101302.63
2023-01-26T06:44:30.883Z,101293.03
2023-01-26T06:46:59.481Z,101294.72
2023-01-26T06:49:28.469Z,101292.97
2023-01-26T06:52:04.535Z,101302.56
2023-01-26T06:55:02.586Z,101304.34
2023-01-26T06:57:49.326Z,101307.81
2023-01-26T07:00:36.437Z,101302.63
2023-01-26T07:03:25.979Z,101266.44
2023-01-26T07:05:57.199Z,101312.25
2023-01-26T07:08:25.739Z,101306.25
2023-01-26T07:10:55.504Z,101313.19
2023-01-26T07:13:23.891Z,101306.91
2023-01-26T07:15:52.258Z,101311.28
2023-01-26T07:18:20.696Z,101312.22
2023-01-26T07:20:51.003Z,101305.16
2023-01-26T07:23:19.513Z,101308.56
2023-01-26T07:25:47.939Z,101283.94
2023-01-26T07:28:17.758Z,101253.03
2023-01-26T07:30:46.369Z,101299.91
2023-01-26T07:33:20.815Z,101244.47
2023-01-26T07:35:58.397Z,101286.28
2023-01-26T07:38:28.288Z,101191.00
2023-01-26T07:40:58.069Z,101286.28
2023-01-26T07:43:28.075Z,101192.69
2023-01-26T07:45:56.567Z,101278.47
2023-01-26T07:48:26.383Z,101160.06
2023-01-26T07:50:54.783Z,101286.28
2023-01-26T07:53:23.837Z,101240.41
2023-01-26T07:55:52.461Z,101285.28
2023-01-26T07:58:21.625Z,101128.09
2023-01-26T08:00:51.466Z,101283.66
2023-01-26T08:03:19.886Z,101280.00
2023-01-26T08:05:48.604Z,101282.69
2023-01-26T08:08:17.229Z,101264.34
2023-01-26T08:10:47.440Z,101288.25
2023-01-26T08:13:23.554Z,101295.97
2023-01-26T08:15:56.725Z,101247.44
2023-01-26T08:18:25.221Z,101292.53
2023-01-26T08:20:57.640Z,101296.03
2023-01-26T08:23:28.516Z,101141.63
2023-01-26T08:26:01.491Z,101296.22
2023-01-26T08:28:31.030Z,101304.00
2023-01-26T08:31:05.968Z,101308.38
2023-01-26T08:33:36.049Z,101300.41
2023-01-26T08:36:05.583Z,101300.50
2023-01-26T08:38:36.888Z,101076.31
2023-01-26T08:41:10.538Z,101141.88
2023-01-26T08:43:41.600Z,101299.09
2023-01-26T08:46:12.045Z,101301.53
2023-01-26T08:48:40.582Z,101300.81
2023-01-26T08:51:10.268Z,101265.72
2023-01-26T08:53:39.385Z,101299.34
2023-01-26T08:56:13.006Z,101290.72
2023-01-26T08:58:42.244Z,101293.34
2023-01-26T09:01:16.238Z,101297.72
2023-01-26T09:03:45.710Z,101307.06
2023-01-26T09:06:15.951Z,101313.22
2023-01-26T09:08:44.486Z,101248.63
2023-01-26T09:11:13.604Z,101309.56
2023-01-26T09:13:42.437Z,101238.06
2023-01-26T09:16:20.142Z,101278.66
2023-01-26T09:18:51.182Z,101306.88
2023-01-26T09:21:20.222Z,101307.75
2023-01-26T09:23:48.860Z,101290.22
2023-01-26T09:26:17.457Z,101319.22
2023-01-26T09:28:45.909Z,101311.00
2023-01-26T09:31:15.758Z,101271.91
2023-01-26T09:33:45.373Z,101328.00
2023-01-26T09:36:13.999Z,101250.31
2023-01-26T09:38:42.705Z,101323.53
2023-01-26T09:41:36.183Z,101300.91
2023-01-26T09:44:11.815Z,101129.66
2023-01-26T09:47:01.531Z,101318.41
2023-01-26T09:49:47.666Z,101313.59
2023-01-26T09:52:27.325Z,101315.97
2023-01-26T09:54:59.876Z,101308.84
2023-01-26T09:57:37.587Z,101311.41
2023-01-26T10:00:11.383Z,101315.91
2023-01-26T10:03:00.884Z,101291.50
2023-01-26T10:05:42.798Z,101310.22
2023-01-26T10:08:14.757Z,101269.56
2023-01-26T10:10:50.908Z,101311.63
2023-01-26T10:13:22.771Z,101089.34
2023-01-26T10:15:59.338Z,101207.00
2023-01-26T10:18:38.295Z,101307.56
2023-01-26T10:21:10.828Z,101234.78
2023-01-26T10:23:49.222Z,101295.50
2023-01-26T10:26:20.541Z,101304.91
2023-01-26T10:28:52.204Z,101290.31
2023-01-26T10:31:24.226Z,101238.03
2023-01-26T10:33:58.037Z,101212.28
2023-01-26T10:36:30.268Z,101295.34
2023-01-26T10:39:06.762Z,101277.59
2023-01-26T10:41:36.194Z,101290.94
2023-01-26T10:44:25.767Z,101282.97
2023-01-26T10:47:07.639Z,101262.94
2023-01-26T10:49:38.374Z,101277.16
2023-01-26T10:52:15.645Z,101280.75
2023-01-26T10:54:44.852Z,101271.31
2023-01-26T10:57:29.068Z,101266.06
2023-01-26T11:00:01.650Z,101165.31
2023-01-26T11:02:32.152Z,101221.81
2023-01-26T11:05:21.507Z,101272.78
2023-01-26T11:07:55.256Z,101161.91
2023-01-26T11:10:29.199Z,101276.09
2023-01-26T11:13:18.386Z,101263.91
2023-01-26T11:15:53.063Z,101266.53
2023-01-26T11:18:33.518Z,101266.66
2023-01-26T11:21:11.138Z,101256.09
2023-01-26T11:23:53.890Z,101258.59
2023-01-26T11:26:52.346Z,101257.34
2023-01-26T11:30:07.334Z,101246.97
2023-01-26T11:32:51.251Z,101255.25
2023-01-26T11:35:33.308Z,101245.34
2023-01-26T11:38:23.425Z,101251.81
2023-01-26T11:41:09.203Z,101244.22
2023-01-26T11:44:12.465Z,101190.69
2023-01-26T11:46:59.383Z,101212.00
2023-01-26T11:49:58.954Z,101220.41
2023-01-26T11:52:43.543Z,101203.03
2023-01-26T11:55:39.171Z,101222.50
2023-01-26T11:58:28.876Z,101199.41
2023-01-26T12:01:01.633Z,101221.53
2023-01-26T12:03:41.152Z,101185.47
2023-01-26T12:06:19.003Z,101213.16
2023-01-26T12:08:56.037Z,101216.31
2023-01-26T12:11:34.346Z,101211.94
2023-01-26T12:14:19.706Z,101206.03
2023-01-26T12:17:27.505Z,101187.81
2023-01-26T12:20:06.738Z,101169.53
2023-01-26T12:22:39.742Z,101141.47
2023-01-26T12:25:31.418Z,101141.25
2023-01-26T12:28:14.355Z,101163.53
2023-01-26T12:30:53.860Z,101118.97
2023-01-26T12:33:22.460Z,101171.13
2023-01-26T12:36:17.915Z,101093.53
2023-01-26T12:39:09.626Z,101156.75
2023-01-26T12:42:00.749Z,101173.53
2023-01-26T12:44:39.867Z,101170.13
2023-01-26T12:47:19.014Z,101148.78
2023-01-26T12:49:58.687Z,101137.41
2023-01-26T12:52:35.689Z,101174.31
2023-01-26T12:55:16.498Z,101165.63
2023-01-26T12:57:55.362Z,101175.06
2023-01-26T13:00:30.983Z,101175.41
2023-01-26T13:03:06.121Z,101175.34
2023-01-26T13:05:37.514Z,101181.06
2023-01-26T13:09:06.024Z,101184.72
2023-01-26T13:11:48.772Z,101183.00
2023-01-26T13:14:39.967Z,101139.78
2023-01-26T13:17:50.823Z,101178.50
2023-01-26T13:20:52.554Z,101142.66
2023-01-26T13:23:43.217Z,101159.44
2023-01-26T13:26:50.978Z,101093.25
2023-01-26T13:29:36.212Z,101154.09
2023-01-26T13:33:03.307Z,101161.50
2023-01-26T13:35:34.036Z,101141.00
2023-01-26T13:38:15.512Z,101062.56
2023-01-26T13:40:49.740Z,101164.91
2023-01-26T13:43:28.247Z,101160.47
2023-01-26T13:46:25.695Z,101158.56
2023-01-26T13:48:57.873Z,101159.44
2023-01-26T13:51:34.347Z,101094.19
2023-01-26T13:54:15.410Z,101163.75
2023-01-26T13:57:06.353Z,101153.06
2023-01-26T13:59:35.267Z,101166.88
2023-01-26T14:02:04.669Z,101141.28
2023-01-26T14:04:35.300Z,101167.81
2023-01-26T14:07:10.981Z,101147.81
2023-01-26T14:09:49.574Z,101159.16
2023-01-26T14:12:25.391Z,101152.38
2023-01-26T14:14:58.430Z,100976.16
2023-01-26T14:17:49.665Z,101156.84
2023-01-26T14:20:30.879Z,101160.25
2023-01-26T14:23:13.754Z,101166.28
2023-01-26T14:26:42.669Z,101168.84
2023-01-26T14:29:19.563Z,101143.28
2023-01-26T14:31:52.525Z,100932.44
2023-01-26T14:34:26.663Z,101149.69
2023-01-26T14:37:19.196Z,101185.69
2023-01-26T14:40:10.469Z,101188.34
2023-01-26T14:42:41.128Z,101195.47
2023-01-26T14:45:14.801Z,100930.00
2023-01-26T14:47:48.414Z,101004.25
2023-01-26T14:50:27.170Z,101194.22
2023-01-26T14:52:57.905Z,101188.72
2023-01-26T14:55:30.370Z,100941.53
2023-01-26T14:58:02.200Z,101189.41
2023-01-26T15:00:39.302Z,101189.03
2023-01-26T15:03:19.327Z,101131.00
2023-01-26T15:05:50.452Z,100840.00
2023-01-26T15:08:26.273Z,101190.44
2023-01-26T15:11:16.660Z,101191.38
2023-01-26T15:13:47.266Z,101193.19
2023-01-26T15:16:19.321Z,101089.19
2023-01-26T15:18:59.312Z,101185.47
2023-01-26T15:21:34.779Z,101186.28
2023-01-26T15:24:06.113Z,101184.41
2023-01-26T15:26:38.333Z,101182.56
2023-01-26T15:29:23.066Z,101180.78
2023-01-26T15:31:56.270Z,101179.91
2023-01-26T15:34:34.981Z,101179.72
2023-01-26T15:37:25.396Z,101177.13
2023-01-26T15:39:55.439Z,101182.31
2023-01-26T15:42:27.813Z,101180.59
2023-01-26T15:44:56.954Z,101177.97
2023-01-26T15:47:25.813Z,101184.97
2023-01-26T15:49:54.784Z,101188.41
2023-01-26T15:52:31.303Z,101182.00
2023-01-26T15:55:01.106Z,101152.72
2023-01-26T15:57:31.515Z,101192.69
2023-01-26T16:00:00.181Z,101197.00
2023-01-26T16:02:32.832Z,101193.38
2023-01-26T16:05:02.464Z,101194.25
2023-01-26T16:07:30.835Z,101196.75
2023-01-26T16:10:01.205Z,101202.00
2023-01-26T16:12:32.159Z,101200.34
2023-01-26T16:15:01.175Z,101135.06
2023-01-26T16:17:29.939Z,101199.41
2023-01-26T16:19:58.395Z,101193.19
2023-01-26T16:22:26.858Z,101187.94
2023-01-26T16:24:55.287Z,101125.44
2023-01-26T16:27:25.020Z,101190.59
2023-01-26T16:29:53.464Z,101182.56
2023-01-26T16:32:29.853Z,101172.66
2023-01-26T16:34:58.347Z,101186.84
2023-01-26T16:37:26.851Z,101193.78
2023-01-26T16:39:55.341Z,101161.03
2023-01-26T16:42:25.150Z,101183.97
2023-01-26T16:44:53.648Z,101187.50
2023-01-26T16:47:22.011Z,101158.47
2023-01-26T16:49:50.557Z,101141.16
2023-01-26T16:52:18.902Z,101181.53
2023-01-26T16:54:48.389Z,101185.97
2023-01-26T16:57:16.801Z,101185.06
2023-01-26T16:59:46.608Z,101185.78
2023-01-26T17:02:26.182Z,101192.19
2023-01-26T17:04:54.798Z,101186.19
2023-01-26T17:07:23.269Z,101187.84
2023-01-26T17:09:51.900Z,101187.88
2023-01-26T17:12:20.324Z,101194.75
2023-01-26T17:14:50.206Z,101187.88
2023-01-26T17:17:19.006Z,101197.47
2023-01-26T17:19:47.900Z,101194.03
2023-01-26T17:22:16.500Z,101198.47
2023-01-26T17:24:44.912Z,101195.84
2023-01-26T17:27:13.390Z,101200.19
2023-01-26T17:29:42.349Z,101202.84
2023-01-26T17:32:12.572Z,101164.03
2023-01-26T17:34:42.800Z,101202.13
2023-01-26T17:37:11.327Z,101208.16
2023-01-26T17:39:39.785Z,101213.47
2023-01-26T17:42:08.636Z,101168.50
2023-01-26T17:44:37.108Z,101213.56
2023-01-26T17:47:05.687Z,101215.25
2023-01-26T17:49:35.482Z,101204.66
2023-01-26T17:52:04.006Z,101218.69
2023-01-26T17:54:33.552Z,101213.22
2023-01-26T17:57:02.414Z,101221.19
2023-01-26T17:59:30.915Z,101227.16
2023-01-26T18:01:59.417Z,101226.28
2023-01-26T18:04:29.240Z,101230.16
2023-01-26T18:07:01.891Z,101229.16
2023-01-26T18:09:30.505Z,101220.97
2023-01-26T18:11:59.165Z,101231.31
2023-01-26T18:14:27.837Z,101231.13
2023-01-26T18:16:56.142Z,101202.53
2023-01-26T18:19:24.922Z,101237.09
2023-01-26T18:21:53.405Z,101240.31
2023-01-26T18:24:23.196Z,101236.06
2023-01-26T18:26:51.822Z,101235.94
2023-01-26T18:29:20.300Z,101209.72
2023-01-26T18:31:49.100Z,101200.97
2023-01-26T18:34:17.633Z,101247.91
2023-01-26T18:36:46.156Z,101242.69
2023-01-26T18:39:16.772Z,101239.91
2023-01-26T18:41:47.264Z,101240.06
2023-01-26T18:44:16.107Z,101239.13
2023-01-26T18:46:44.868Z,101250.44
2023-01-26T18:49:15.440Z,101246.91
2023-01-26T18:51:47.974Z,101240.81
2023-01-26T18:54:17.250Z,101240.69
2023-01-26T18:56:47.253Z,101238.06
2023-01-26T18:59:16.224Z,101217.59
2023-01-26T19:01:44.869Z,101242.41
2023-01-26T19:04:13.678Z,101248.31
2023-01-26T19:06:42.097Z,101240.69
2023-01-26T19:09:11.904Z,101239.91
2023-01-26T19:11:46.294Z,101231.31
2023-01-26T19:14:27.021Z,101233.97
2023-01-26T19:16:57.856Z,101227.13
2023-01-26T19:19:27.472Z,101230.56
2023-01-26T19:21:55.996Z,101228.78
2023-01-26T19:24:26.030Z,101142.38
2023-01-26T19:26:54.841Z,101184.03
2023-01-26T19:29:25.107Z,101222.13
2023-01-26T19:31:53.712Z,101213.38
2023-01-26T19:34:22.179Z,101219.53
2023-01-26T19:36:50.674Z,101214.22
2023-01-26T19:39:19.089Z,101209.94
2023-01-26T19:41:47.615Z,101217.00
2023-01-26T19:44:15.968Z,101083.88
2023-01-26T19:46:45.777Z,101208.44
2023-01-26T19:49:15.172Z,101216.31
2023-01-26T19:51:43.657Z,101214.59
2023-01-26T19:54:13.753Z,101214.44
2023-01-26T19:56:42.351Z,101217.00
2023-01-26T19:59:13.397Z,101217.94
2023-01-26T20:01:41.897Z,101221.47
2023-01-26T20:04:16.274Z,101205.38
2023-01-26T20:06:44.794Z,101243.31
2023-01-26T20:09:13.258Z,101244.91
2023-01-26T20:11:41.768Z,101220.09
2023-01-26T20:14:12.262Z,101238.44
2023-01-26T20:16:41.296Z,101242.97
2023-01-26T20:19:12.466Z,101249.06
2023-01-26T20:21:41.060Z,101248.19
2023-01-26T20:24:13.688Z,101245.69
2023-01-26T20:26:44.237Z,101247.56
2023-01-26T20:29:15.524Z,101244.97
2023-01-26T20:31:45.069Z,101241.53
2023-01-26T20:34:15.576Z,101247.50
2023-01-26T20:36:44.462Z,101244.97
2023-01-26T20:39:17.670Z,101064.16
2023-01-26T20:41:46.815Z,101242.09
2023-01-26T20:44:15.718Z,101219.97
2023-01-26T20:46:45.242Z,101244.69
2023-01-26T20:49:18.576Z,101196.31
2023-01-26T20:51:48.095Z,101180.38
2023-01-26T20:54:18.688Z,101230.63
2023-01-26T20:56:49.105Z,101247.19
2023-01-26T20:59:18.362Z,101247.06
2023-01-26T21:01:47.415Z,101247.00
2023-01-26T21:04:17.682Z,101248.66
2023-01-26T21:06:46.638Z,101254.81
2023-01-26T21:09:15.448Z,101247.84
2023-01-26T21:11:44.537Z,101254.94
2023-01-26T21:14:14.296Z,101006.81
2023-01-26T21:16:44.041Z,101253.97
2023-01-26T21:19:12.858Z,101258.31
2023-01-26T21:21:45.081Z,101239.75
2023-01-26T21:24:13.636Z,101146.31
2023-01-26T21:26:42.067Z,101197.47
2023-01-26T21:29:15.888Z,101248.84
2023-01-26T21:31:45.910Z,101250.66
2023-01-26T21:34:14.438Z,101212.38
2023-01-26T21:36:44.675Z,101243.59
2023-01-26T21:39:15.608Z,101251.44
2023-01-26T21:41:59.697Z,101249.00
2023-01-26T21:44:30.415Z,101249.97
2023-01-26T21:47:03.076Z,101225.25
2023-01-26T21:49:31.997Z,101238.44
2023-01-26T21:52:19.611Z,101249.03
2023-01-26T21:54:48.133Z,101215.53
2023-01-26T21:57:34.583Z,101242.97
2023-01-26T22:00:03.379Z,101246.41
2023-01-26T22:02:33.161Z,101241.19
2023-01-26T22:05:01.683Z,101243.81
2023-01-26T22:07:32.193Z,101247.34
2023-01-26T22:10:00.768Z,101138.72
2023-01-26T22:12:29.890Z,101236.16
2023-01-26T22:14:58.864Z,101233.50
2023-01-26T22:17:27.351Z,101212.03
2023-01-26T22:19:56.247Z,101242.97
2023-01-26T22:22:24.649Z,101244.69
2023-01-26T22:24:54.842Z,101248.13
2023-01-26T22:27:25.204Z,101244.56
2023-01-26T22:29:56.767Z,101251.59
2023-01-26T22:32:25.810Z,101249.91
2023-01-26T22:34:54.489Z,101248.94
2023-01-26T22:37:24.854Z,101248.94
2023-01-26T22:39:55.331Z,101219.09
2023-01-26T22:42:24.493Z,101251.69
2023-01-26T22:44:53.773Z,101256.00
2023-01-26T22:47:22.820Z,101249.69
2023-01-26T22:49:51.863Z,101250.44
2023-01-26T22:52:21.258Z,101253.88
2023-01-26T22:54:50.331Z,101251.31
2023-01-26T22:57:20.664Z,101256.53
2023-01-26T22:59:49.472Z,101162.25
2023-01-26T23:02:18.509Z,101253.88
2023-01-26T23:04:47.553Z,101246.16
2023-01-26T23:07:16.485Z,101121.59
2023-01-26T23:09:45.642Z,101253.16
2023-01-26T23:12:20.196Z,101249.03
2023-01-26T23:14:49.242Z,101190.38
2023-01-26T23:17:18.045Z,101216.03
2023-01-26T23:19:53.808Z,101255.69
2023-01-26T23:22:24.678Z,101251.41
2023-01-26T23:25:18.646Z,101248.78
2023-01-26T23:27:51.347Z,101241.97
2023-01-26T23:30:22.852Z,101242.81
2023-01-26T23:32:53.820Z,101243.69
2023-01-26T23:35:26.429Z,101239.50
2023-01-26T23:37:55.858Z,101242.91
2023-01-26T23:40:30.779Z,101243.56
2023-01-26T23:43:16.940Z,101239.19
2023-01-26T23:45:59.824Z,100886.09
2023-01-26T23:48:29.141Z,101235.59
2023-01-26T23:50:59.355Z,101242.56
2023-01-26T23:53:30.714Z,101217.88
2023-01-26T23:56:04.390Z,101238.97
2023-01-26T23:58:34.871Z,101241.59
